Arnesen, Minnesota
Current Conditions -  °F | °C
As of 1:14 PM on Friday 24 Oct 2014 (Local Time) from KRRT Reporting Station
Clear Clear  
Wind Chill: 63°   Ceiling: Unl
Heat Index: 63°   Visibility: 10mi
Dew Point: 46°   Wind: 10mph
Humidity: 55%   Direction: 230°SW
Pressure: 29.69"   Gusts: 16mph
Location:  48.6345°N, 95.1786°W
Report Text: KRRT 241814Z AUTO 23009G14KT 10SM CLR 17/08 A2969 RMK AO2
Loading
Personal Weather Stations






























Interactive Weather Map New forecast layout! Learn more

10-Day Weather Forecast

Advertisements
Track Severe Weather on mobile